Time;durP1;ratioP1;P1;durP2;ratioP2;P2;SDS_P1;SDS_P2;PMS_P1;PMS_P2;Temp;Humidity;BMP_temperature;BMP_pressure;BME280_temperature;BME280_humidity;BME280_pressure;Samples;Min_cycle;Max_cycle;Signal;HPM_P1;HPM_P2
2021/06/03 15:44:40;;;;;;;3.50;1.95;;;29.10;77.60;;;;;;5122148;27;20316;-77
2021/06/03 15:47:07;;;;;;;6.13;1.73;;;28.60;77.40;;;;;;5081134;28;20028;-77
2021/06/03 15:49:33;;;;;;;4.30;2.13;;;28.40;78.70;;;;;;5063667;28;20082;-77
2021/06/03 15:52:04;;;;;;;4.38;2.85;;;28.30;80.30;;;;;;5059012;28;20526;-75
2021/06/03 15:54:50;;;;;;;6.70;2.17;;;28.30;80.30;;;;;;5044713;28;20060;-74
2021/06/03 15:57:17;;;;;;;7.55;2.50;;;28.30;80.90;;;;;;5043698;28;20461;-75
2021/06/03 15:59:43;;;;;;;3.25;2.15;;;28.40;81.50;;;;;;5044913;28;20473;-77
2021/06/03 16:02:08;;;;;;;3.35;1.90;;;28.40;81.90;;;;;;5058715;28;20504;-76
2021/06/03 16:04:35;;;;;;;2.65;2.00;;;28.40;82.70;;;;;;5064069;28;20033;-76
2021/06/03 16:07:01;;;;;;;6.22;2.55;;;28.40;83.70;;;;;;5065132;28;20047;-74
2021/06/03 16:09:27;;;;;;;3.40;1.98;;;28.50;84.70;;;;;;5064624;28;20025;-78
2021/06/03 16:11:53;;;;;;;4.70;1.95;;;28.70;86.60;;;;;;5059742;28;20029;-75
2021/06/03 16:14:19;;;;;;;3.58;2.05;;;28.70;87.20;;;;;;5057786;28;20029;-75
2021/06/03 16:16:44;;;;;;;4.85;2.15;;;29.30;87.00;;;;;;5063374;28;20029;-76
2021/06/03 16:19:11;;;;;;;3.03;1.90;;;27.80;85.80;;;;;;5059315;28;20112;-77
2021/06/03 16:21:37;;;;;;;4.40;2.83;;;30.50;85.10;;;;;;5065556;28;20473;-76
2021/06/03 16:24:03;;;;;;;4.88;2.80;;;31.00;83.80;;;;;;5066717;28;20037;-76
2021/06/03 16:26:29;;;;;;;3.55;2.80;;;32.00;84.80;;;;;;5063092;28;20032;-76
2021/06/03 16:28:56;;;;;;;3.22;1.90;;;30.30;85.50;;;;;;5079459;28;20048;-76
2021/06/03 16:31:23;;;;;;;3.83;2.13;;;30.20;85.70;;;;;;5087263;28;20016;-76
2021/06/03 16:33:50;;;;;;;6.90;4.45;;;30.50;85.10;;;;;;5066850;28;20517;-76
2021/06/03 16:36:16;;;;;;;7.10;3.10;;;30.70;84.50;;;;;;5066531;28;20052;-77
2021/06/03 16:38:42;;;;;;;6.40;3.55;;;31.10;83.70;;;;;;5065999;28;20057;-77
2021/06/03 16:41:10;;;;;;;4.10;2.47;;;31.70;82.30;;;;;;5067498;28;20032;-77
2021/06/03 16:43:37;;;;;;;5.18;2.70;;;31.80;82.00;;;;;;5074942;28;20078;-77
2021/06/03 16:46:03;;;;;;;7.00;2.45;;;31.30;82.40;;;;;;5075596;28;20016;-77
2021/06/03 16:48:29;;;;;;;6.47;2.67;;;31.10;81.60;;;;;;5065651;28;20056;-76
2021/06/03 16:50:58;;;;;;;9.65;2.63;;;30.60;83.80;;;;;;5067430;28;20048;-76
2021/06/03 16:53:25;;;;;;;7.43;2.50;;;30.60;85.10;;;;;;5066274;28;20083;-76
2021/06/03 16:55:51;;;;;;;7.40;2.67;;;30.90;85.60;;;;;;5055671;28;20054;-76
2021/06/03 16:58:17;;;;;;;5.35;2.63;;;31.20;84.10;;;;;;5037968;28;20036;-76
2021/06/03 17:00:46;;;;;;;4.57;2.38;;;31.50;83.20;;;;;;5032575;28;20033;-76
2021/06/03 17:03:13;;;;;;;4.65;2.25;;;31.40;82.90;;;;;;5049074;28;20044;-76
2021/06/03 17:05:41;;;;;;;6.72;3.10;;;31.70;82.50;;;;;;5054677;28;20032;-76
2021/06/03 17:08:08;;;;;;;7.75;2.33;;;31.90;81.00;;;;;;5054068;28;20032;-77
2021/06/03 17:10:36;;;;;;;4.57;2.10;;;32.20;79.30;;;;;;5052542;28;20053;-77
2021/06/03 17:13:03;;;;;;;27.60;22.08;;;32.60;76.80;;;;;;5042289;28;20041;-77
2021/06/03 17:15:29;;;;;;;18.42;16.42;;;32.70;74.50;;;;;;5053894;28;20111;-77
2021/06/03 17:17:56;;;;;;;13.65;11.32;;;32.70;73.20;;;;;;5032249;28;20113;-77
2021/06/03 17:20:25;;;;;;;9.30;7.70;;;32.30;73.10;;;;;;5032759;28;20044;-76
2021/06/03 17:22:51;;;;;;;7.35;6.47;;;31.90;74.60;;;;;;5045821;28;20708;-78
2021/06/03 17:25:17;;;;;;;8.20;6.07;;;31.70;75.20;;;;;;5053894;28;20029;-76
2021/06/03 17:27:47;;;;;;;10.70;8.15;;;31.50;76.00;;;;;;5041972;28;20129;-77
2021/06/03 17:30:17;;;;;;;6.05;2.90;;;31.30;77.40;;;;;;5046536;28;20501;-77
2021/06/03 17:32:44;;;;;;;4.55;2.50;;;31.00;77.10;;;;;;5051510;28;20535;-77
2021/06/03 17:35:10;;;;;;;9.02;2.60;;;30.30;78.60;;;;;;5053417;28;20417;-77
2021/06/03 17:37:36;;;;;;;3.72;2.70;;;29.70;81.70;;;;;;5041742;28;20040;-76
2021/06/03 17:40:04;;;;;;;5.85;3.88;;;29.20;83.90;;;;;;5032653;28;20375;-76
2021/06/03 17:42:31;;;;;;;15.32;10.43;;;29.30;84.90;;;;;;5034628;28;20084;-78
2021/06/03 17:44:56;;;;;;;7.10;3.63;;;29.40;84.70;;;;;;5052976;28;20061;-76
2021/06/03 17:47:22;;;;;;;13.52;9.68;;;29.20;85.70;;;;;;5050886;28;20068;-76
2021/06/03 17:49:48;;;;;;;6.30;3.92;;;29.00;86.80;;;;;;5052506;28;20056;-76
2021/06/03 17:52:15;;;;;;;31.15;23.10;;;28.80;88.30;;;;;;5052476;28;20477;-76
2021/06/03 17:54:41;;;;;;;38.33;29.02;;;28.30;90.10;;;;;;5053036;28;20040;-76
2021/06/03 17:57:07;;;;;;;15.88;12.82;;;27.90;91.20;;;;;;5046832;28;20021;-76
2021/06/03 17:59:34;;;;;;;4.35;3.65;;;27.60;92.40;;;;;;5031551;28;20609;-76
2021/06/03 18:02:00;;;;;;;6.72;3.00;;;27.10;94.60;;;;;;5032975;28;20033;-76
2021/06/03 18:04:25;;;;;;;3.15;2.40;;;26.70;97.70;;;;;;5031811;28;20386;-76
2021/06/03 18:06:52;;;;;;;3.97;2.97;;;26.40;99.90;;;;;;5032084;28;20029;-77
2021/06/03 18:09:17;;;;;;;3.85;2.60;;;26.00;99.90;;;;;;5031193;28;20021;-75
2021/06/03 18:11:43;;;;;;;3.80;2.88;;;25.70;99.90;;;;;;5035128;28;20490;-73
2021/06/03 18:14:11;;;;;;;5.55;2.92;;;25.40;99.90;;;;;;5064708;28;20035;-77
2021/06/03 18:16:37;;;;;;;5.53;3.03;;;25.20;99.90;;;;;;5069449;28;20120;-79
2021/06/03 18:19:03;;;;;;;3.22;2.80;;;25.00;99.90;;;;;;5051307;28;20056;-76
2021/06/03 18:21:29;;;;;;;6.20;3.00;;;24.90;99.90;;;;;;5048710;28;20028;-77
2021/06/03 18:23:54;;;;;;;4.10;2.63;;;24.90;99.90;;;;;;5052826;28;20025;-77
2021/06/03 18:26:21;;;;;;;4.38;3.08;;;24.80;99.90;;;;;;5051751;28;20539;-77
2021/06/03 18:28:47;;;;;;;5.80;3.17;;;24.70;99.90;;;;;;5034405;28;20045;-78
2021/06/03 18:31:13;;;;;;;4.82;2.72;;;24.70;99.90;;;;;;5051589;28;20028;-78
2021/06/03 18:33:38;;;;;;;5.40;2.88;;;24.50;99.90;;;;;;5048021;28;20025;-79
2021/06/03 18:36:04;;;;;;;5.18;2.95;;;24.50;99.90;;;;;;5046116;28;20366;-78
2021/06/03 18:38:30;;;;;;;5.88;2.85;;;24.50;99.90;;;;;;5044565;28;20041;-78
2021/06/03 18:40:56;;;;;;;4.82;2.90;;;24.40;99.90;;;;;;5049887;28;20458;-79
2021/06/03 18:43:21;;;;;;;7.28;4.47;;;24.30;99.90;;;;;;5030386;28;20433;-78
2021/06/03 18:45:48;;;;;;;4.15;2.75;;;24.20;99.90;;;;;;5047708;28;20031;-78
2021/06/03 18:48:13;;;;;;;4.97;2.83;;;24.10;99.90;;;;;;5044898;28;20065;-78
2021/06/03 18:50:41;;;;;;;5.45;3.10;;;24.10;99.90;;;;;;5046256;28;20018;-79
2021/06/03 18:53:09;;;;;;;4.35;2.85;;;24.00;99.90;;;;;;5024482;28;20033;-79
2021/06/03 18:55:35;;;;;;;4.75;2.90;;;;;;;;;;5047493;28;20029;-79
2021/06/03 18:58:02;;;;;;;5.05;2.30;;;;;;;;;;5060458;28;20110;-80
2021/06/03 19:00:29;;;;;;;7.03;3.30;;;;;;;;;;5057096;28;20028;-81
2021/06/03 19:02:55;;;;;;;5.07;2.53;;;;;;;;;;5055479;28;20029;-77
2021/06/03 19:05:23;;;;;;;6.13;2.97;;;23.90;99.90;;;;;;5056665;28;20036;-79
2021/06/03 19:07:49;;;;;;;4.22;3.00;;;;;;;;;;5052273;28;20028;-78
2021/06/03 19:10:17;;;;;;;5.43;3.03;;;;;;;;;;5057000;28;20389;-78
2021/06/03 19:12:45;;;;;;;3.30;2.58;;;;;;;;;;5058340;28;20103;-78
2021/06/03 19:15:11;;;;;;;4.18;3.17;;;;;;;;;;5036884;28;20021;-78
2021/06/03 19:17:37;;;;;;;9.30;4.40;;;;;;;;;;5053060;28;20065;-78
2021/06/03 19:20:04;;;;;;;5.82;3.65;;;;;;;;;;5034376;28;20038;-78
2021/06/03 19:22:30;;;;;;;4.32;2.90;;;;;;;;;;5049246;28;20132;-78
2021/06/03 19:24:56;;;;;;;6.68;2.85;;;;;;;;;;5058891;28;20493;-80
2021/06/03 19:27:23;;;;;;;4.03;3.05;;;;;;;;;;5045410;28;20028;-79
2021/06/03 19:29:49;;;;;;;11.50;3.75;;;;;;;;;;5061954;28;20029;-79
2021/06/03 19:32:15;;;;;;;4.45;3.03;;;;;;;;;;5063877;28;20038;-80
2021/06/03 19:34:41;;;;;;;6.10;2.78;;;;;;;;;;5062205;28;20029;-79
2021/06/03 19:37:07;;;;;;;4.85;3.15;;;;;;;;;;5044990;28;20036;-79
2021/06/03 19:39:33;;;;;;;4.60;3.15;;;;;;;;;;5061546;28;20111;-79
2021/06/03 19:41:59;;;;;;;4.15;3.05;;;;;;;;;;5060625;28;20044;-79
2021/06/03 19:44:25;;;;;;;6.43;3.20;;;;;;;;;;5073822;28;20454;-78
2021/06/03 19:46:51;;;;;;;4.50;3.00;;;;;;;;;;5081359;28;20033;-78
2021/06/03 19:49:17;;;;;;;5.50;2.80;;;;;;;;;;5080802;28;20025;-79
2021/06/03 19:51:43;;;;;;;6.18;2.80;;;23.40;99.90;;;;;;5072449;28;20095;-78
2021/06/03 19:54:09;;;;;;;3.92;2.55;;;22.10;99.90;;;;;;5039069;28;20033;-79
2021/06/03 19:56:35;;;;;;;5.80;2.88;;;22.00;99.90;;;;;;5057103;28;20476;-78
2021/06/03 19:59:00;;;;;;;4.13;3.00;;;22.00;99.90;;;;;;5065009;28;20031;-79
2021/06/03 20:01:26;;;;;;;6.35;3.00;;;21.90;99.90;;;;;;5075655;28;20033;-78
2021/06/03 20:03:53;;;;;;;4.88;2.97;;;21.90;99.90;;;;;;5069260;28;20028;-77
2021/06/03 20:06:19;;;;;;;6.40;3.17;;;;;;;;;;5065835;28;20014;-78
2021/06/03 20:08:45;;;;;;;5.95;3.15;;;;;;;;;;5066394;28;20020;-78
2021/06/03 20:11:11;;;;;;;7.03;3.17;;;;;;;;;;5062741;28;20029;-77
2021/06/03 20:13:37;;;;;;;7.05;3.38;;;;;;;;;;5063145;28;20024;-78
2021/06/03 20:16:04;;;;;;;4.13;2.80;;;;;;;;;;5048603;28;20017;-78
2021/06/03 20:18:30;;;;;;;6.53;3.85;;;;;;;;;;5044269;28;20030;-78
2021/06/03 20:20:59;;;;;;;7.93;3.20;;;;;;;;;;5042022;28;20525;-78
2021/06/03 20:23:25;;;;;;;4.97;2.90;;;;;;;;;;5046803;28;20540;-78
2021/06/03 20:25:51;;;;;;;5.45;3.50;;;;;;;;;;5046179;28;20025;-78
2021/06/03 20:28:17;;;;;;;6.28;3.03;;;;;;;;;;5046721;28;20064;-78
2021/06/03 20:30:45;;;;;;;5.40;4.28;;;;;;;;;;5045415;28;20051;-78
2021/06/03 20:33:14;;;;;;;5.32;4.22;;;21.90;99.90;;;;;;5049010;28;20029;-77
2021/06/03 20:35:40;;;;;;;6.32;4.68;;;;;;;;;;5051273;28;20082;-78
2021/06/03 20:38:06;;;;;;;4.80;3.83;;;;;;;;;;5048836;28;20025;-78
2021/06/03 20:40:33;;;;;;;3.10;2.70;;;;;;;;;;5049058;28;20034;-77
2021/06/03 20:42:59;;;;;;;6.40;2.97;;;;;;;;;;5032402;28;20117;-76
2021/06/03 20:45:28;;;;;;;7.25;3.10;;;;;;;;;;5047542;28;20037;-76
2021/06/03 20:47:54;;;;;;;4.55;2.88;;;;;;;;;;5032707;22;20046;-76
2021/06/03 20:50:28;;;;;;;4.28;2.70;;;;;;;;;;5007230;28;20034;-76
2021/06/03 20:52:55;;;;;;;9.30;2.60;;;;;;;;;;5004703;28;20479;-76
2021/06/03 20:55:21;;;;;;;8.70;2.60;;;;;;;;;;4995553;28;20037;-75
2021/06/03 20:57:48;;;;;;;4.88;3.10;;;;;;;;;;4995635;28;20026;-75
2021/06/03 21:00:15;;;;;;;7.05;3.95;;;;;;;;;;4994810;28;20037;-75
2021/06/03 21:02:41;;;;;;;4.78;2.72;;;;;;;;;;5001136;28;20066;-75
2021/06/03 21:05:08;;;;;;;5.78;3.47;;;;;;;;;;5004288;28;20025;-75
2021/06/03 21:07:35;;;;;;;4.88;3.60;;;;;;;;;;5008304;28;20033;-74
2021/06/03 21:10:01;;;;;;;5.82;3.30;;;;;;;;;;5010611;28;20390;-76
2021/06/03 21:12:27;;;;;;;5.47;3.67;;;;;;;;;;5004956;28;20467;-74
2021/06/03 21:14:54;;;;;;;5.22;3.30;;;;;;;;;;5004134;28;20089;-75
2021/06/03 21:17:20;;;;;;;4.95;3.30;;;21.20;99.90;;;;;;5005764;28;20042;-75
2021/06/03 21:19:46;;;;;;;4.22;3.13;;;;;;;;;;5013768;28;20026;-75
2021/06/03 21:22:12;;;;;;;7.20;3.63;;;;;;;;;;4997144;28;20098;-75
2021/06/03 21:24:38;;;;;;;5.22;4.07;;;;;;;;;;4995052;28;20034;-75
2021/06/03 21:27:04;;;;;;;4.97;3.72;;;;;;;;;;4994858;28;20493;-76
2021/06/03 21:29:30;;;;;;;9.07;4.93;;;;;;;;;;4994361;28;20113;-75
2021/06/03 21:31:56;;;;;;;5.38;3.85;;;20.60;99.90;;;;;;4994768;28;20054;-75
2021/06/03 21:34:21;;;;;;;6.13;4.47;;;19.80;99.90;;;;;;4995041;28;20099;-74
2021/06/03 21:36:47;;;;;;;7.68;4.47;;;19.60;99.90;;;;;;4994697;28;20045;-76
2021/06/03 21:39:13;;;;;;;4.93;4.30;;;19.50;99.90;;;;;;4994228;28;20065;-75
2021/06/03 21:41:39;;;;;;;5.13;4.57;;;19.50;99.90;;;;;;4994502;28;20041;-76
